createdAt,value
2018-07-03T00:04:55.129Z,18.60
2018-07-03T00:09:58.321Z,18.30
2018-07-03T00:15:01.462Z,18.20
2018-07-03T00:20:05.634Z,18.00
2018-07-03T00:25:08.777Z,17.70
2018-07-03T00:30:11.935Z,17.80
2018-07-03T00:35:15.074Z,17.80
2018-07-03T00:40:18.235Z,17.60
2018-07-03T00:45:21.356Z,17.50
2018-07-03T00:50:24.500Z,17.50
2018-07-03T00:55:27.633Z,17.50
2018-07-03T01:00:33.492Z,17.30
2018-07-03T01:05:36.634Z,17.30
2018-07-03T01:10:41.835Z,17.20
2018-07-03T01:15:45.195Z,17.20
2018-07-03T01:20:48.369Z,17.20
2018-07-03T01:25:51.521Z,17.20
2018-07-03T01:30:54.658Z,17.10
2018-07-03T01:35:57.882Z,17.00
2018-07-03T01:41:01.799Z,17.10
2018-07-03T01:46:05.325Z,16.90
2018-07-03T01:51:08.471Z,16.90
2018-07-03T01:56:11.608Z,16.70
2018-07-03T02:01:14.722Z,16.40
2018-07-03T02:06:17.857Z,16.50
2018-07-03T02:11:21.202Z,16.30
2018-07-03T02:16:24.356Z,16.40
2018-07-03T02:21:27.586Z,16.10
2018-07-03T02:26:30.825Z,16.30
2018-07-03T02:31:33.962Z,16.30
2018-07-03T02:41:41.159Z,16.00
2018-07-03T02:46:44.299Z,15.90
2018-07-03T02:51:47.429Z,15.90
2018-07-03T02:56:50.577Z,16.10
2018-07-03T03:01:55.417Z,16.20
2018-07-03T03:06:58.617Z,15.90
2018-07-03T03:12:03.969Z,16.00
2018-07-03T03:17:10.431Z,15.80
2018-07-03T03:22:13.570Z,15.70
2018-07-03T03:27:16.693Z,15.60
2018-07-03T03:32:24.066Z,15.50
2018-07-03T03:37:27.213Z,15.60
2018-07-03T03:42:30.464Z,15.60
2018-07-03T03:47:33.618Z,15.50
2018-07-03T03:52:36.849Z,15.40
2018-07-03T03:57:40.027Z,15.40
2018-07-03T04:02:43.154Z,15.40
2018-07-03T04:07:46.333Z,15.30
2018-07-03T04:12:49.489Z,15.40
2018-07-03T04:17:52.662Z,15.40
2018-07-03T04:22:55.793Z,15.40
2018-07-03T04:27:58.914Z,15.50
2018-07-03T04:33:03.017Z,15.40
2018-07-03T04:38:06.175Z,15.60
2018-07-03T04:43:09.853Z,15.60
2018-07-03T04:48:12.967Z,15.60
2018-07-03T04:53:16.151Z,15.60
2018-07-03T04:58:19.266Z,15.60
2018-07-03T05:03:22.907Z,15.80
2018-07-03T05:08:26.080Z,15.90
2018-07-03T05:13:29.231Z,16.10
2018-07-03T05:18:32.354Z,16.10
2018-07-03T05:23:35.878Z,16.10
2018-07-03T05:28:39.423Z,16.00
2018-07-03T05:33:42.571Z,16.10
2018-07-03T05:38:45.678Z,16.30
2018-07-03T05:43:48.881Z,16.50
2018-07-03T05:48:51.997Z,16.40
2018-07-03T05:53:59.338Z,16.60
2018-07-03T05:59:02.526Z,16.70
2018-07-03T06:04:05.805Z,17.00
2018-07-03T06:09:09.818Z,17.20
2018-07-03T06:14:13.045Z,17.40
2018-07-03T06:19:16.310Z,17.50
2018-07-03T06:24:19.478Z,17.50
2018-07-03T06:29:22.658Z,17.70
2018-07-03T06:34:25.838Z,17.70
2018-07-03T06:39:29.042Z,17.80
2018-07-03T06:44:32.187Z,17.90
2018-07-03T06:49:35.358Z,18.20
2018-07-03T06:54:38.594Z,18.50
2018-07-03T06:59:41.743Z,18.50
2018-07-03T07:04:44.907Z,18.70
2018-07-03T07:09:48.098Z,19.00
2018-07-03T07:14:51.254Z,19.30
2018-07-03T07:19:54.511Z,19.60
2018-07-03T07:24:57.684Z,20.00
2018-07-03T07:30:01.894Z,20.20
2018-07-03T07:35:05.050Z,20.50
2018-07-03T07:40:10.104Z,20.70
2018-07-03T07:45:13.346Z,20.90
2018-07-03T07:50:16.511Z,21.30
2018-07-03T07:55:19.653Z,21.50
2018-07-03T08:00:23.030Z,21.70
2018-07-03T08:05:27.177Z,21.90
2018-07-03T08:10:32.325Z,22.20
2018-07-03T08:15:35.610Z,22.40
2018-07-03T08:20:38.874Z,22.40
2018-07-03T08:25:43.055Z,22.50
2018-07-03T08:30:46.294Z,22.70
2018-07-03T08:35:49.591Z,22.80
2018-07-03T08:40:52.906Z,23.00
2018-07-03T08:45:56.213Z,23.20
2018-07-03T08:51:01.464Z,23.30
2018-07-03T08:56:04.994Z,23.20
2018-07-03T09:01:08.222Z,23.50
2018-07-03T09:06:11.380Z,23.60
2018-07-03T09:11:14.542Z,23.60
2018-07-03T09:16:17.737Z,23.90
2018-07-03T09:21:21.474Z,23.90
2018-07-03T09:26:24.766Z,24.10
2018-07-03T09:31:27.963Z,24.50
2018-07-03T09:36:31.174Z,24.50
2018-07-03T09:41:34.374Z,24.50
2018-07-03T09:46:37.559Z,24.50
2018-07-03T09:51:42.826Z,24.80
2018-07-03T09:56:46.009Z,25.00
2018-07-03T10:01:55.034Z,25.00
2018-07-03T10:07:01.444Z,25.20
2018-07-03T10:12:04.688Z,25.20
2018-07-03T10:17:11.663Z,25.10
2018-07-03T10:22:14.967Z,25.00
2018-07-03T10:27:18.214Z,25.30
2018-07-03T10:32:21.493Z,25.40
2018-07-03T10:37:24.670Z,25.50
2018-07-03T10:42:27.874Z,25.60
2018-07-03T10:47:33.073Z,25.80
2018-07-03T10:52:36.263Z,25.90
2018-07-03T10:57:39.546Z,26.40
2018-07-03T11:02:42.712Z,26.10
2018-07-03T11:07:45.910Z,26.20
2018-07-03T11:12:49.110Z,26.10
2018-07-03T11:17:52.295Z,26.30
2018-07-03T11:22:55.438Z,26.60
2018-07-03T11:27:58.637Z,26.60
2018-07-03T11:33:01.847Z,26.50
2018-07-03T11:38:05.050Z,26.70
2018-07-03T11:43:08.227Z,26.80
2018-07-03T11:48:11.466Z,27.10
2018-07-03T11:53:20.353Z,27.10
2018-07-03T11:58:23.678Z,26.90
2018-07-03T12:03:31.458Z,27.00
2018-07-03T12:08:34.578Z,27.30
2018-07-03T12:13:39.102Z,27.50
2018-07-03T12:18:47.781Z,27.90
2018-07-03T12:23:52.714Z,28.20
2018-07-03T12:28:55.921Z,28.30
2018-07-03T12:33:59.323Z,28.10
2018-07-03T12:39:02.487Z,28.00
2018-07-03T12:44:06.196Z,28.30
2018-07-03T12:49:09.946Z,28.40
2018-07-03T12:54:13.146Z,28.40
2018-07-03T12:59:16.494Z,28.50
2018-07-03T13:04:19.675Z,28.20
2018-07-03T13:09:22.980Z,28.40
2018-07-03T13:14:26.286Z,28.40
2018-07-03T13:19:29.708Z,28.30
2018-07-03T13:24:32.939Z,28.50
2018-07-03T13:29:36.081Z,28.70
2018-07-03T13:34:39.280Z,28.50
2018-07-03T13:39:42.558Z,28.70
2018-07-03T13:44:45.757Z,28.80
2018-07-03T13:49:49.024Z,28.90
2018-07-03T13:54:52.423Z,28.60
2018-07-03T13:59:55.833Z,28.90
2018-07-03T14:05:00.052Z,29.00
2018-07-03T14:10:03.613Z,29.20
2018-07-03T14:15:07.538Z,29.40
2018-07-03T14:20:10.952Z,29.00
2018-07-03T14:25:15.186Z,28.70
2018-07-03T14:30:18.604Z,29.10
2018-07-03T14:35:21.853Z,29.00
2018-07-03T14:40:25.051Z,29.20
2018-07-03T14:45:28.310Z,29.30
2018-07-03T14:50:31.898Z,29.30
2018-07-03T14:55:35.269Z,29.20
2018-07-03T15:00:38.564Z,29.10
2018-07-03T15:05:41.724Z,29.10
2018-07-03T15:10:44.869Z,29.40
2018-07-03T15:15:48.211Z,29.40
2018-07-03T15:20:51.422Z,29.30
2018-07-03T15:25:54.834Z,29.10
2018-07-03T15:31:00.898Z,29.10
2018-07-03T15:36:04.463Z,29.00
2018-07-03T15:41:07.667Z,29.10
2018-07-03T15:46:11.377Z,29.30
2018-07-03T15:51:14.537Z,29.10
2018-07-03T15:56:17.696Z,29.00
2018-07-03T16:01:21.013Z,29.10
2018-07-03T16:06:45.136Z,29.20
2018-07-03T16:11:48.342Z,29.20
2018-07-03T16:16:52.530Z,29.00
2018-07-03T16:21:55.779Z,29.20
2018-07-03T16:26:58.921Z,29.10
2018-07-03T16:32:02.110Z,29.00
2018-07-03T16:37:06.795Z,28.80
2018-07-03T16:42:10.002Z,28.60
2018-07-03T16:47:13.236Z,28.70
2018-07-03T16:52:16.507Z,28.40
2018-07-03T16:57:19.842Z,28.40
2018-07-03T17:02:22.957Z,28.40
2018-07-03T17:07:26.824Z,28.10
2018-07-03T17:12:30.061Z,28.10
2018-07-03T17:17:33.275Z,28.00
2018-07-03T17:22:36.526Z,28.00
2018-07-03T17:27:39.678Z,28.10
2018-07-03T17:32:42.868Z,28.00
2018-07-03T17:37:46.738Z,27.90
2018-07-03T17:43:30.949Z,27.90
2018-07-03T17:48:34.088Z,27.90
2018-07-03T17:53:37.263Z,27.90
2018-07-03T17:58:40.518Z,27.80
2018-07-03T18:03:43.794Z,27.70
2018-07-03T18:08:47.605Z,27.70
2018-07-03T18:13:50.754Z,27.70
2018-07-03T18:19:01.551Z,27.60
2018-07-03T18:24:05.194Z,27.60
2018-07-03T18:29:08.427Z,27.50
2018-07-03T18:34:11.670Z,27.40
2018-07-03T18:39:14.817Z,27.30
2018-07-03T18:44:17.942Z,27.20
2018-07-03T18:49:21.183Z,27.00
2018-07-03T18:54:24.438Z,26.80
2018-07-03T18:59:27.570Z,26.70
2018-07-03T19:04:30.762Z,26.50
2018-07-03T19:09:33.998Z,26.30
2018-07-03T19:14:37.270Z,26.20
2018-07-03T19:19:40.426Z,25.90
2018-07-03T19:24:43.643Z,25.70
2018-07-03T19:29:46.938Z,25.60
2018-07-03T19:34:50.173Z,25.50
2018-07-03T19:39:53.341Z,25.20
2018-07-03T19:44:56.595Z,25.20
2018-07-03T19:50:01.044Z,25.10
2018-07-03T19:55:04.167Z,25.00
2018-07-03T20:00:08.217Z,24.70
2018-07-03T20:10:19.971Z,24.10
2018-07-03T20:15:23.439Z,24.00
2018-07-03T20:20:26.670Z,23.90
2018-07-03T20:25:29.931Z,23.80
2018-07-03T20:30:33.079Z,23.70
2018-07-03T20:35:37.284Z,23.60
2018-07-03T20:40:58.960Z,23.40
2018-07-03T20:46:02.254Z,23.30
2018-07-03T20:51:05.621Z,23.10
2018-07-03T20:56:08.777Z,23.10
2018-07-03T21:01:11.984Z,23.00
2018-07-03T21:06:15.724Z,22.80
2018-07-03T21:11:18.910Z,22.60
2018-07-03T21:16:22.179Z,22.70
2018-07-03T21:21:25.359Z,22.50
2018-07-03T21:26:28.667Z,22.70
2018-07-03T21:31:32.943Z,22.60
2018-07-03T21:36:36.103Z,22.50
2018-07-03T21:41:39.292Z,22.40
2018-07-03T21:46:42.978Z,22.50
2018-07-03T21:51:46.206Z,22.60
2018-07-03T21:56:49.380Z,22.50
2018-07-03T22:01:52.541Z,22.50
2018-07-03T22:06:55.951Z,22.30
2018-07-03T22:11:59.182Z,21.90
2018-07-03T22:17:04.604Z,21.80
2018-07-03T22:22:08.382Z,21.90
2018-07-03T22:27:11.929Z,21.80
2018-07-03T22:32:15.107Z,21.70
2018-07-03T22:37:18.274Z,21.60
2018-07-03T22:42:21.572Z,21.50
2018-07-03T22:47:25.818Z,21.60
2018-07-03T22:52:29.053Z,21.40
2018-07-03T22:57:32.285Z,21.40
2018-07-03T23:02:35.443Z,21.40
2018-07-03T23:07:38.682Z,21.30
2018-07-03T23:12:41.864Z,21.10
2018-07-03T23:17:45.010Z,20.90
2018-07-03T23:22:49.436Z,20.70
2018-07-03T23:27:52.589Z,20.60
2018-07-03T23:32:55.734Z,20.60
2018-07-03T23:37:58.882Z,20.70
2018-07-03T23:43:02.143Z,20.70
2018-07-03T23:48:16.522Z,20.70
2018-07-03T23:53:31.090Z,20.60
2018-07-03T23:58:45.798Z,20.40
